KANB/ANB METAR and TAF weather

Enter ICAO airport designator
Station Type Date Time Source
KANB METAR 2021/07/29 17:53 UTC NOAA

KANB 291753Z AUTO 19003KT 10SM CLR 33/23 A3007 RMK AO2 SLP169 T03280228 10333 20222 58008


Station Type Date Time Source
KANB Decoded METAR 2021/07/29 17:53 UTC NOAA

ANNISTON METRO AIRPORT, AL, United States (KANB) 33-35N 085-51W 183M
Jul 29, 2021 - 01:53 PM EDT / 2021.07.29 1753 UTC
Wind: from the S (190 degrees) at 3 MPH (3 KT):0
Visibility: 10 mile(s):0
Sky conditions: clear
Temperature: 91.0 F (32.8 C)
Heat index: 99.1 F (37.3 C):1
Dew Point: 73.0 F (22.8 C)
Relative Humidity: 55%
Pressure (altimeter): 30.07 in. Hg (1018 hPa)
Pressure tendency: 0.02 inches (0.8 hPa) lower than three hours ago
ob: KANB 291753Z AUTO 19003KT 10SM CLR 33/23 A3007 RMK AO2 SLP169 T03280228 10333 20222 58008
cycle: 18

Station Type Date Time Source
KANB TAF 2021/07/29 18:33 UTC NOAA

TAF KANB 291730Z 2918/3018 28007KT P6SM SCT035
FM300000 00000KT P6SM SKC
FM301200 26007KT P6SM SCT040

Example: see airport list